KCBK/CBK METAR and TAF weather

Enter ICAO airport designator
Station Type Date Time Source
KCBK METAR 2022/12/10 01:35 UTC NOAA

KCBK 100135Z AUTO 16008KT 10SM CLR 02/M08 A2998 RMK AO2 T00241079


Station Type Date Time Source
KCBK Decoded METAR 2022/12/10 01:35 UTC NOAA

Station name not available
Dec 09, 2022 - 08:35 PM EST / 2022.12.10 0135 UTC
Wind: from the SSE (160 degrees) at 9 MPH (8 KT):0
Visibility: 10 mile(s):0
Sky conditions: clear
Temperature: 36.3 F (2.4 C)
Dew Point: 17.8 F (-7.9 C)
Relative Humidity: 46%
Pressure (altimeter): 29.98 in. Hg (1015 hPa)
ob: KCBK 100135Z AUTO 16008KT 10SM CLR 02/M08 A2998 RMK AO2 T00241079
cycle: 1

Station Type Date Time Source
KCBK TAF UTC NOAA

Error!

Example: see airport list